Time;durP1;ratioP1;P1;durP2;ratioP2;P2;SDS_P1;SDS_P2;PMS_P1;PMS_P2;Temp;Humidity;BMP_temperature;BMP_pressure;BME280_temperature;BME280_humidity;BME280_pressure;Samples;Min_cycle;Max_cycle;Signal;HPM_P1;HPM_P2
2021/03/19 00:02:25;;;;;;;26.10;17.83;;;3.90;99.90;;;;;;5118161;27;20879;-64
2021/03/19 00:04:51;;;;;;;20.27;15.70;;;3.80;99.90;;;;;;5114702;28;20570;-64
2021/03/19 00:07:17;;;;;;;27.83;18.53;;;3.70;99.90;;;;;;5114363;28;20511;-64
2021/03/19 00:09:44;;;;;;;25.55;17.63;;;3.70;99.90;;;;;;5114033;28;20518;-64
2021/03/19 00:12:11;;;;;;;22.43;16.97;;;3.70;99.90;;;;;;5114801;28;20720;-64
2021/03/19 00:14:38;;;;;;;26.07;18.97;;;3.60;99.90;;;;;;5114005;28;20952;-66
2021/03/19 00:17:04;;;;;;;26.33;18.53;;;3.60;99.90;;;;;;5108889;28;20600;-64
2021/03/19 00:19:30;;;;;;;24.40;16.20;;;3.60;99.90;;;;;;5114455;28;20416;-67
2021/03/19 00:21:57;;;;;;;28.70;18.63;;;3.60;99.90;;;;;;5114467;28;20459;-67
2021/03/19 00:24:23;;;;;;;28.60;18.40;;;3.50;99.90;;;;;;5114312;28;20818;-65
2021/03/19 00:26:50;;;;;;;25.40;17.30;;;3.40;99.90;;;;;;5113780;28;20547;-66
2021/03/19 00:29:17;;;;;;;23.50;17.30;;;3.40;99.90;;;;;;5112396;27;21067;-66
2021/03/19 00:31:43;;;;;;;26.23;16.90;;;3.30;99.90;;;;;;5102804;28;20496;-67
2021/03/19 00:34:10;;;;;;;28.77;18.80;;;3.30;99.90;;;;;;5106985;28;20488;-66
2021/03/19 00:36:36;;;;;;;30.37;21.17;;;3.20;99.90;;;;;;5111902;27;20794;-65
2021/03/19 00:39:03;;;;;;;27.30;18.47;;;3.30;99.90;;;;;;5112778;27;20551;-67
2021/03/19 00:41:30;;;;;;;27.67;20.00;;;3.30;99.90;;;;;;5117565;27;20452;-65
2021/03/19 00:43:56;;;;;;;28.67;20.57;;;3.30;99.90;;;;;;5113124;28;20455;-66
2021/03/19 00:46:23;;;;;;;36.38;20.70;;;3.20;99.90;;;;;;5113516;27;20535;-65
2021/03/19 00:48:50;;;;;;;26.40;18.73;;;3.30;99.90;;;;;;5130296;27;20241;-66
2021/03/19 00:51:16;;;;;;;25.93;17.73;;;3.40;99.90;;;;;;5113232;27;20488;-65
2021/03/19 00:53:43;;;;;;;27.65;17.02;;;3.40;99.90;;;;;;5108521;28;20861;-66
2021/03/19 00:56:09;;;;;;;29.13;19.67;;;3.50;99.90;;;;;;5110797;28;20344;-66
2021/03/19 00:58:35;;;;;;;29.15;19.90;;;3.50;99.90;;;;;;5112641;27;20908;-65
2021/03/19 01:01:02;;;;;;;26.48;17.23;;;3.40;99.90;;;;;;5109098;27;20229;-66
2021/03/19 01:03:29;;;;;;;23.27;17.07;;;3.50;99.90;;;;;;5113965;27;20211;-68
2021/03/19 01:05:55;;;;;;;28.27;19.90;;;3.40;99.90;;;;;;5122108;27;20449;-65
2021/03/19 01:08:22;;;;;;;31.30;19.60;;;3.30;99.90;;;;;;5099212;27;20504;-64
2021/03/19 01:10:52;;;;;;;27.33;19.20;;;3.20;99.90;;;;;;5113292;28;20511;-67
2021/03/19 01:13:18;;;;;;;28.17;19.30;;;3.10;99.90;;;;;;5113362;28;20219;-65
2021/03/19 01:15:45;;;;;;;29.65;21.52;;;3.10;99.90;;;;;;5113064;28;20253;-65
2021/03/19 01:18:14;;;;;;;30.20;20.75;;;3.00;99.90;;;;;;5128958;27;20667;-65
2021/03/19 01:20:42;;;;;;;25.60;19.63;;;3.00;99.90;;;;;;5112643;28;20603;-66
2021/03/19 01:23:09;;;;;;;31.30;21.30;;;3.00;99.90;;;;;;5110093;28;20206;-65
2021/03/19 01:25:35;;;;;;;30.30;19.58;;;2.80;99.90;;;;;;5106439;28;20751;-65
2021/03/19 01:28:02;;;;;;;34.10;20.48;;;2.80;99.90;;;;;;5116726;27;20248;-64
2021/03/19 01:30:32;;;;;;;33.13;22.65;;;2.80;99.90;;;;;;5117980;27;20203;-66
2021/03/19 01:32:58;;;;;;;30.02;22.48;;;2.80;99.90;;;;;;5108629;28;20195;-64
2021/03/19 01:35:26;;;;;;;27.33;20.30;;;2.80;99.90;;;;;;5112603;28;20298;-65
2021/03/19 01:37:53;;;;;;;30.98;21.42;;;2.80;99.90;;;;;;5110532;27;20448;-65
2021/03/19 01:40:23;;;;;;;27.60;19.15;;;2.80;99.90;;;;;;5118307;27;20296;-65
2021/03/19 01:42:50;;;;;;;30.85;21.33;;;2.70;99.90;;;;;;5110647;28;20255;-65
2021/03/19 01:45:49;;;;;;;26.50;18.20;;;2.70;99.90;;;;;;5112878;28;20748;-64
2021/03/19 01:48:53;;;;;;;28.50;19.70;;;2.60;99.90;;;;;;5108411;28;20237;-64
2021/03/19 01:51:57;;;;;;;34.97;20.37;;;2.50;99.90;;;;;;5112075;28;20228;-66
2021/03/19 01:55:00;;;;;;;31.45;21.52;;;2.50;99.90;;;;;;5112906;28;20509;-65
2021/03/19 01:58:04;;;;;;;32.85;20.15;;;2.50;99.90;;;;;;5111870;28;20233;-64
2021/03/19 02:01:07;;;;;;;30.73;21.65;;;2.40;99.90;;;;;;5106110;28;20197;-65
2021/03/19 02:04:11;;;;;;;31.13;20.83;;;2.40;99.90;;;;;;5105703;28;20361;-64
2021/03/19 02:07:14;;;;;;;30.13;19.42;;;2.30;99.90;;;;;;5111284;28;20321;-64
2021/03/19 02:10:18;;;;;;;27.75;19.30;;;2.30;99.90;;;;;;5112045;28;20200;-65
2021/03/19 02:13:21;;;;;;;28.48;19.65;;;2.20;99.90;;;;;;5112541;28;20195;-65
2021/03/19 02:16:30;;;;;;;31.33;21.30;;;2.20;99.90;;;;;;5111694;28;20191;-67
2021/03/19 02:19:33;;;;;;;27.08;18.33;;;2.20;99.90;;;;;;5042549;28;20204;-65
2021/03/19 02:22:37;;;;;;;32.70;20.25;;;2.10;99.90;;;;;;5100660;28;20552;-66
2021/03/19 02:25:40;;;;;;;33.65;19.48;;;2.10;99.90;;;;;;5112386;28;20284;-67
2021/03/19 02:28:44;;;;;;;28.90;18.45;;;2.10;99.90;;;;;;5111531;28;20250;-66
2021/03/19 02:31:10;;;;;;;28.73;19.25;;;2.10;99.90;;;;;;5112448;28;20200;-65
2021/03/19 02:33:41;;;;;;;25.33;17.17;;;2.10;99.90;;;;;;5111483;28;20649;-65
2021/03/19 02:36:08;;;;;;;26.55;18.05;;;2.10;99.90;;;;;;5112128;28;20297;-64
2021/03/19 02:38:34;;;;;;;29.25;16.75;;;2.00;99.90;;;;;;5111805;28;20203;-64
2021/03/19 02:41:00;;;;;;;24.92;16.92;;;2.10;99.90;;;;;;5112309;28;20701;-65
2021/03/19 02:43:27;;;;;;;24.95;15.90;;;2.00;99.90;;;;;;5111537;28;20661;-65
2021/03/19 02:45:53;;;;;;;29.45;17.63;;;2.00;99.90;;;;;;5111946;28;20296;-66
2021/03/19 02:48:20;;;;;;;29.40;15.93;;;2.00;99.90;;;;;;5111994;28;20683;-65
2021/03/19 02:50:48;;;;;;;25.25;16.77;;;2.10;99.90;;;;;;5112234;28;20200;-65
2021/03/19 02:53:15;;;;;;;21.70;15.10;;;2.20;99.90;;;;;;5111891;28;20279;-66
2021/03/19 02:55:41;;;;;;;24.27;14.73;;;2.30;99.90;;;;;;5111789;28;20304;-65
2021/03/19 02:58:09;;;;;;;20.73;14.55;;;2.40;99.90;;;;;;5110521;28;20571;-65
2021/03/19 03:00:35;;;;;;;24.55;15.90;;;2.50;99.90;;;;;;5110533;28;20630;-65
2021/03/19 03:03:03;;;;;;;22.50;14.43;;;2.50;99.90;;;;;;5107764;28;20209;-65
2021/03/19 03:05:29;;;;;;;20.50;14.55;;;2.60;99.90;;;;;;5110831;28;20204;-67
2021/03/19 03:07:56;;;;;;;25.00;14.40;;;2.70;99.90;;;;;;5106136;28;20219;-65
2021/03/19 03:10:25;;;;;;;24.13;15.13;;;2.80;99.90;;;;;;5108284;28;20225;-66
2021/03/19 03:12:52;;;;;;;23.50;17.00;;;2.80;99.90;;;;;;5111183;28;20589;-65
2021/03/19 03:15:19;;;;;;;27.80;15.25;;;2.70;99.90;;;;;;5112317;28;20503;-66
2021/03/19 03:17:46;;;;;;;23.90;16.92;;;2.80;99.90;;;;;;5111270;28;20221;-64
2021/03/19 03:20:15;;;;;;;25.48;16.25;;;2.70;99.90;;;;;;5115589;28;20211;-66
2021/03/19 03:22:43;;;;;;;23.65;15.80;;;2.70;99.90;;;;;;5110115;28;20297;-66
2021/03/19 03:25:12;;;;;;;20.17;14.17;;;2.70;99.90;;;;;;5113550;28;20234;-66
2021/03/19 03:27:39;;;;;;;20.42;13.77;;;2.70;99.90;;;;;;5107984;28;20859;-65
2021/03/19 03:30:08;;;;;;;23.83;14.53;;;2.80;99.90;;;;;;5101509;27;20282;-66
2021/03/19 03:32:35;;;;;;;21.47;15.43;;;2.70;99.90;;;;;;5121089;27;20452;-66
2021/03/19 03:35:01;;;;;;;23.90;16.27;;;2.70;99.90;;;;;;5113832;28;20449;-64
2021/03/19 03:37:28;;;;;;;21.60;15.73;;;2.60;99.90;;;;;;5108869;28;20206;-66
2021/03/19 03:39:54;;;;;;;23.80;15.95;;;2.70;99.90;;;;;;5114639;28;20284;-67
2021/03/19 03:42:21;;;;;;;24.48;15.48;;;2.60;99.90;;;;;;5115305;28;20677;-66
2021/03/19 03:44:48;;;;;;;24.25;16.15;;;2.60;99.90;;;;;;5115527;28;20200;-67
2021/03/19 03:47:14;;;;;;;21.60;14.32;;;2.60;99.90;;;;;;5114620;28;20229;-66
2021/03/19 03:49:40;;;;;;;24.77;15.35;;;2.60;99.90;;;;;;5114745;28;20223;-64
2021/03/19 03:52:07;;;;;;;20.48;13.40;;;2.40;99.90;;;;;;5114874;28;20291;-65
2021/03/19 03:54:33;;;;;;;28.00;15.50;;;2.30;99.90;;;;;;5116578;27;20214;-64
2021/03/19 03:57:00;;;;;;;22.00;15.95;;;2.20;99.90;;;;;;5121400;27;20574;-66
2021/03/19 03:59:27;;;;;;;24.10;15.80;;;2.10;99.90;;;;;;5114617;28;20286;-66
2021/03/19 04:01:53;;;;;;;22.75;15.02;;;2.00;99.90;;;;;;5115060;28;20724;-66
2021/03/19 04:04:22;;;;;;;29.00;16.48;;;1.90;99.90;;;;;;5114838;28;20643;-67
2021/03/19 04:06:48;;;;;;;25.13;13.82;;;1.80;99.90;;;;;;5114671;28;20226;-66
2021/03/19 04:09:15;;;;;;;25.98;15.13;;;1.80;99.90;;;;;;5114448;28;20203;-66
2021/03/19 04:11:41;;;;;;;26.73;16.38;;;1.70;99.90;;;;;;5114438;28;20289;-65
2021/03/19 04:14:07;;;;;;;21.45;13.10;;;1.60;99.90;;;;;;5114644;28;20213;-66
2021/03/19 04:16:35;;;;;;;21.17;14.27;;;1.60;99.90;;;;;;5114563;28;20296;-63
2021/03/19 04:19:02;;;;;;;24.77;14.68;;;1.60;99.90;;;;;;5114466;28;20207;-64
2021/03/19 04:21:28;;;;;;;20.92;13.55;;;1.50;99.90;;;;;;5113606;28;20293;-66
2021/03/19 04:23:54;;;;;;;22.95;14.40;;;1.50;99.90;;;;;;5114888;28;20288;-63
2021/03/19 04:26:25;;;;;;;28.75;14.95;;;1.40;99.90;;;;;;5113900;28;20193;-65
2021/03/19 04:28:52;;;;;;;24.77;15.15;;;1.40;99.90;;;;;;5114100;28;20207;-64
2021/03/19 04:31:19;;;;;;;20.08;13.13;;;1.30;99.90;;;;;;5105481;28;20280;-64
2021/03/19 04:33:46;;;;;;;21.85;13.10;;;1.30;99.90;;;;;;5104985;28;20284;-66
2021/03/19 04:36:36;;;;;;;22.00;14.38;;;1.20;99.90;;;;;;5114139;28;20214;-65
2021/03/19 04:39:06;;;;;;;20.83;12.27;;;1.20;99.90;;;;;;5106679;27;20197;-64
2021/03/19 04:41:33;;;;;;;18.73;12.70;;;1.20;99.90;;;;;;5113786;28;20285;-63
2021/03/19 04:44:02;;;;;;;21.60;13.00;;;1.20;99.90;;;;;;5113818;28;20288;-65
2021/03/19 04:46:28;;;;;;;19.50;12.38;;;1.20;99.90;;;;;;5113203;28;20250;-66
2021/03/19 04:48:55;;;;;;;22.17;12.70;;;1.20;99.90;;;;;;5095976;28;20202;-66
2021/03/19 04:51:22;;;;;;;19.80;11.38;;;1.10;99.90;;;;;;5108867;28;20206;-68
2021/03/19 04:53:48;;;;;;;21.27;12.60;;;1.20;99.90;;;;;;5112729;28;20213;-67
2021/03/19 04:56:14;;;;;;;19.38;12.25;;;1.20;99.90;;;;;;5113472;28;20285;-65
2021/03/19 04:58:41;;;;;;;18.67;11.73;;;1.10;99.90;;;;;;5113923;28;20284;-65
2021/03/19 05:01:07;;;;;;;24.77;12.35;;;1.20;99.90;;;;;;5112757;28;20662;-65
2021/03/19 05:03:34;;;;;;;23.55;14.07;;;1.10;99.90;;;;;;5113786;28;20220;-66
2021/03/19 05:06:01;;;;;;;21.95;13.50;;;1.10;99.90;;;;;;5113221;28;20244;-64
2021/03/19 05:08:27;;;;;;;20.98;12.30;;;1.10;99.90;;;;;;5113109;28;20224;-64
2021/03/19 05:10:53;;;;;;;19.92;11.98;;;1.00;99.90;;;;;;5113113;28;20281;-65
2021/03/19 05:13:20;;;;;;;19.90;13.10;;;1.00;99.90;;;;;;5112694;28;20242;-67
2021/03/19 05:15:46;;;;;;;23.85;13.27;;;1.00;99.90;;;;;;5122638;27;20201;-64
2021/03/19 05:18:13;;;;;;;19.65;12.60;;;1.00;99.90;;;;;;5117901;27;20209;-65
2021/03/19 05:20:39;;;;;;;20.92;12.15;;;1.00;99.90;;;;;;5109773;28;20286;-64
2021/03/19 05:23:21;;;;;;;20.15;11.80;;;1.00;99.90;;;;;;5110813;28;20292;-66
2021/03/19 05:25:48;;;;;;;19.27;11.55;;;0.90;99.90;;;;;;5100507;28;20492;-67
2021/03/19 05:28:14;;;;;;;21.08;12.23;;;0.90;99.90;;;;;;5103549;28;20239;-64
2021/03/19 05:30:41;;;;;;;21.80;13.32;;;0.90;99.90;;;;;;5101313;28;20326;-61
2021/03/19 05:33:07;;;;;;;12.80;6.57;;;0.80;99.90;;;;;;5112432;28;20191;-51
2021/03/19 05:35:34;;;;;;;11.27;6.37;;;6.00;99.90;;;;;;5105356;28;20796;-55
2021/03/19 05:38:01;;;;;;;10.70;5.53;;;7.20;99.90;;;;;;5092505;28;20514;-52
2021/03/19 05:40:36;;;;;;;11.23;5.97;;;7.30;99.90;;;;;;5094180;28;20819;-55
2021/03/19 05:43:24;;;;;;;12.17;6.60;;;8.30;99.90;;;;;;5098283;28;21014;-58
2021/03/19 05:45:53;;;;;;;13.70;6.80;;;8.70;99.90;;;;;;5111019;28;20533;-64
2021/03/19 05:48:20;;;;;;;13.10;7.03;;;7.40;99.90;;;;;;5104657;28;20517;-63
2021/03/19 05:50:47;;;;;;;14.23;7.13;;;5.60;99.90;;;;;;5104406;28;20450;-64
2021/03/19 05:53:16;;;;;;;16.63;7.60;;;4.80;99.90;;;;;;5112151;28;20480;-62
2021/03/19 05:55:43;;;;;;;15.13;8.80;;;4.00;99.90;;;;;;5112726;28;20530;-62
2021/03/19 05:58:18;;;;;;;13.80;8.60;;;3.40;99.90;;;;;;5106902;28;20443;-63
2021/03/19 06:00:44;;;;;;;13.40;8.37;;;2.80;99.90;;;;;;5103308;28;20441;-62
2021/03/19 06:03:12;;;;;;;13.43;8.00;;;2.50;99.90;;;;;;5111308;28;20873;-67
2021/03/19 06:05:57;;;;;;;15.25;9.00;;;2.20;99.90;;;;;;5110771;28;20453;-66
2021/03/19 06:08:28;;;;;;;17.10;8.13;;;1.90;99.90;;;;;;5108622;28;20744;-65
2021/03/19 06:11:05;;;;;;;16.58;10.52;;;1.80;99.90;;;;;;5112205;28;20617;-62
2021/03/19 06:13:44;;;;;;;15.82;9.98;;;1.50;99.90;;;;;;5109546;28;20196;-65
2021/03/19 06:16:35;;;;;;;16.52;10.10;;;1.40;99.90;;;;;;5110604;28;20210;-64
2021/03/19 06:19:05;;;;;;;15.68;10.77;;;1.30;99.90;;;;;;5109639;28;20715;-65
2021/03/19 06:21:34;;;;;;;14.80;8.00;;;1.20;99.90;;;;;;5107475;28;20204;-65
2021/03/19 06:24:20;;;;;;;14.45;9.45;;;1.30;99.90;;;;;;5111357;28;20198;-63
2021/03/19 06:26:47;;;;;;;19.42;10.52;;;1.30;99.90;;;;;;5106677;28;20238;-65
2021/03/19 06:29:25;;;;;;;13.98;8.95;;;1.20;99.90;;;;;;5111596;28;20209;-66
2021/03/19 06:32:08;;;;;;;15.23;10.00;;;1.30;99.90;;;;;;5105925;28;20289;-63
2021/03/19 06:34:35;;;;;;;14.38;9.65;;;1.20;99.90;;;;;;5090576;28;20722;-63
2021/03/19 06:37:05;;;;;;;14.10;7.57;;;1.20;99.90;;;;;;5109879;28;20259;-63
2021/03/19 06:39:43;;;;;;;18.13;10.43;;;1.30;99.90;;;;;;5108334;28;20202;-63
2021/03/19 06:42:30;;;;;;;14.25;8.50;;;1.30;99.90;;;;;;5102820;28;20201;-65
2021/03/19 06:45:05;;;;;;;13.70;8.23;;;1.40;99.90;;;;;;5107473;28;20285;-64
2021/03/19 06:47:44;;;;;;;13.52;8.18;;;1.40;99.90;;;;;;5106495;28;20229;-67
2021/03/19 06:50:13;;;;;;;16.33;9.10;;;1.40;99.90;;;;;;5105468;28;20512;-64
2021/03/19 06:52:39;;;;;;;15.77;8.73;;;1.40;99.90;;;;;;5105835;27;20202;-70
2021/03/19 06:55:07;;;;;;;15.10;8.10;;;1.40;99.90;;;;;;5115419;27;20747;-64
2021/03/19 06:57:49;;;;;;;12.98;8.50;;;1.50;99.90;;;;;;5107880;28;20569;-65
2021/03/19 07:00:34;;;;;;;14.63;8.38;;;1.50;99.90;;;;;;5111939;28;20202;-63
2021/03/19 07:03:10;;;;;;;16.17;8.50;;;1.60;99.90;;;;;;5111996;28;20197;-64
2021/03/19 07:05:49;;;;;;;14.20;8.23;;;1.60;99.90;;;;;;5113017;28;20206;-63
2021/03/19 07:08:29;;;;;;;11.80;7.72;;;1.60;99.90;;;;;;5109639;28;20302;-64
2021/03/19 07:11:27;;;;;;;13.00;8.45;;;1.60;99.90;;;;;;5108838;27;20201;-64
2021/03/19 07:14:14;;;;;;;13.43;7.15;;;1.70;99.90;;;;;;5104660;28;20227;-63
2021/03/19 07:16:55;;;;;;;18.55;8.98;;;1.80;99.90;;;;;;5104594;28;20513;-65
2021/03/19 07:19:23;;;;;;;13.43;6.75;;;1.80;99.90;;;;;;5100502;28;20216;-69
2021/03/19 07:22:00;;;;;;;13.32;6.32;;;1.90;99.90;;;;;;5100658;27;20293;-68
2021/03/19 07:24:44;;;;;;;14.75;7.63;;;1.90;99.90;;;;;;5102373;27;20683;-65
2021/03/19 07:27:24;;;;;;;13.75;7.25;;;2.00;99.90;;;;;;5099092;28;20792;-68
2021/03/19 07:30:04;;;;;;;12.05;6.95;;;2.00;99.90;;;;;;5102632;28;20444;-65
2021/03/19 07:32:39;;;;;;;10.60;6.65;;;2.10;99.90;;;;;;5107889;28;20186;-65
2021/03/19 07:35:15;;;;;;;13.40;7.30;;;2.20;99.90;;;;;;5102369;28;20199;-64
2021/03/19 07:38:09;;;;;;;14.57;7.25;;;2.20;99.90;;;;;;5095641;28;20301;-65
2021/03/19 07:40:50;;;;;;;12.68;6.32;;;2.30;99.90;;;;;;5100771;28;20294;-67
2021/03/19 07:43:49;;;;;;;14.10;6.80;;;2.30;99.90;;;;;;5106657;28;20472;-65
2021/03/19 07:46:25;;;;;;;14.60;6.60;;;2.40;99.90;;;;;;5092412;28;20728;-65
2021/03/19 07:49:08;;;;;;;16.63;7.57;;;2.40;99.90;;;;;;5103753;27;20214;-67
2021/03/19 07:51:47;;;;;;;11.38;7.13;;;2.50;99.90;;;;;;5105851;28;20289;-67
2021/03/19 07:54:19;;;;;;;14.45;7.85;;;2.60;99.90;;;;;;5109638;28;20234;-67
2021/03/19 07:56:56;;;;;;;11.85;6.25;;;2.70;99.90;;;;;;5111816;28;20289;-62
2021/03/19 07:59:45;;;;;;;12.55;6.65;;;3.20;99.90;;;;;;5105739;28;20206;-62
2021/03/19 08:02:45;;;;;;;13.17;6.67;;;3.80;99.90;;;;;;5103664;28;20296;-63
2021/03/19 08:05:21;;;;;;;12.80;5.23;;;4.30;99.90;;;;;;5100466;28;20860;-62
2021/03/19 08:07:57;;;;;;;12.03;6.00;;;5.00;99.90;;;;;;5107097;28;20544;-69
2021/03/19 08:10:27;;;;;;;11.00;5.10;;;5.60;99.90;;;;;;5110815;28;20478;-64
2021/03/19 08:13:01;;;;;;;13.63;5.67;;;5.70;99.90;;;;;;5110749;28;20514;-64
2021/03/19 08:15:34;;;;;;;10.53;5.40;;;5.80;99.90;;;;;;5107968;28;20438;-62
2021/03/19 08:18:09;;;;;;;10.43;4.80;;;6.30;99.90;;;;;;5111261;28;20502;-63
2021/03/19 08:20:48;;;;;;;9.20;4.67;;;6.60;99.90;;;;;;5110523;28;20425;-66
2021/03/19 08:23:27;;;;;;;10.50;5.27;;;7.00;99.90;;;;;;5096728;28;20543;-65
2021/03/19 08:25:54;;;;;;;9.60;4.47;;;7.90;99.90;;;;;;5112568;28;20868;-67
2021/03/19 08:28:28;;;;;;;9.83;4.30;;;8.90;99.90;;;;;;5113004;28;20481;-66
2021/03/19 08:31:03;;;;;;;10.53;4.70;;;9.20;99.90;;;;;;5107742;28;21007;-65
2021/03/19 08:33:45;;;;;;;9.63;4.23;;;9.60;99.90;;;;;;5107358;28;20449;-65
2021/03/19 08:36:20;;;;;;;11.23;5.13;;;10.40;99.90;;;;;;5109512;28;20489;-64
2021/03/19 08:38:49;;;;;;;12.27;5.43;;;10.90;99.90;;;;;;5112576;28;20937;-64
2021/03/19 08:41:19;;;;;;;9.83;4.60;;;11.50;99.90;;;;;;5105520;28;20482;-66
2021/03/19 08:43:48;;;;;;;8.47;4.77;;;12.80;99.90;;;;;;5091949;28;20442;-67
2021/03/19 08:46:20;;;;;;;7.90;4.17;;;12.70;99.90;;;;;;5122256;27;20456;-65
2021/03/19 08:48:51;;;;;;;13.10;4.53;;;12.50;99.90;;;;;;5132468;27;20483;-63
2021/03/19 08:51:35;;;;;;;8.60;4.23;;;12.70;99.90;;;;;;5114639;27;20457;-67
2021/03/19 08:54:31;;;;;;;9.17;4.10;;;13.70;99.90;;;;;;5119519;27;20461;-64
2021/03/19 08:57:32;;;;;;;9.03;3.63;;;13.70;99.90;;;;;;5094663;28;20450;-64
2021/03/19 08:59:59;;;;;;;13.83;4.13;;;13.30;99.90;;;;;;5102068;28;20440;-67
2021/03/19 09:03:01;;;;;;;8.20;4.33;;;13.70;99.90;;;;;;5111110;28;20458;-63
2021/03/19 09:05:33;;;;;;;5.80;3.70;;;13.40;99.90;;;;;;5115387;27;20448;-65
2021/03/19 09:08:24;;;;;;;8.77;3.43;;;14.30;99.90;;;;;;5096591;28;20473;-65
2021/03/19 09:11:07;;;;;;;6.00;3.03;;;13.60;98.90;;;;;;5111802;27;20558;-67
2021/03/19 09:13:33;;;;;;;7.70;2.83;;;13.60;98.60;;;;;;5117380;27;20533;-68
2021/03/19 09:16:43;;;;;;;9.03;3.47;;;13.70;99.60;;;;;;5104541;27;20461;-67
2021/03/19 09:19:51;;;;;;;7.33;3.07;;;13.50;98.20;;;;;;5104305;27;20962;-64
2021/03/19 09:22:40;;;;;;;6.70;2.87;;;14.00;98.50;;;;;;5106029;28;20441;-67
2021/03/19 09:25:38;;;;;;;9.27;3.10;;;14.20;97.80;;;;;;5098211;28;20888;-65
2021/03/19 09:28:19;;;;;;;6.70;2.60;;;15.60;96.80;;;;;;5096179;28;20477;-65
2021/03/19 09:30:50;;;;;;;4.60;2.40;;;14.90;94.50;;;;;;5105464;28;20481;-69
2021/03/19 09:33:54;;;;;;;5.70;2.40;;;14.00;93.20;;;;;;5107305;28;20526;-67
2021/03/19 09:37:03;;;;;;;5.33;2.43;;;15.30;95.30;;;;;;5099163;28;20812;-65
2021/03/19 09:39:56;;;;;;;7.00;2.80;;;16.10;93.10;;;;;;5106217;27;20457;-68
2021/03/19 09:42:48;;;;;;;5.37;2.23;;;16.10;91.70;;;;;;5101246;28;20461;-69
2021/03/19 09:45:22;;;;;;;4.80;2.03;;;15.40;90.10;;;;;;5103862;28;20438;-64
2021/03/19 09:47:51;;;;;;;5.10;2.00;;;16.40;89.70;;;;;;5098912;28;20556;-67
2021/03/19 09:50:22;;;;;;;7.23;2.17;;;15.80;83.70;;;;;;5107428;28;20451;-64
2021/03/19 09:52:56;;;;;;;4.67;1.90;;;14.80;88.20;;;;;;5104305;28;20523;-70
2021/03/19 09:55:26;;;;;;;7.67;1.70;;;16.00;86.70;;;;;;5098469;28;20484;-65
2021/03/19 09:57:53;;;;;;;4.50;1.83;;;15.50;83.40;;;;;;5104686;28;20454;-65
2021/03/19 10:00:23;;;;;;;4.70;2.10;;;15.60;81.20;;;;;;5103599;28;20445;-65
2021/03/19 10:02:49;;;;;;;8.60;2.10;;;16.90;84.20;;;;;;5103636;28;20512;-68
2021/03/19 10:05:18;;;;;;;4.33;1.80;;;17.00;83.20;;;;;;5103133;28;20457;-67
2021/03/19 10:07:48;;;;;;;4.73;1.90;;;17.10;77.30;;;;;;5104904;28;20485;-66
2021/03/19 10:10:27;;;;;;;3.93;1.53;;;16.80;75.40;;;;;;5104312;28;20543;-64
2021/03/19 10:13:08;;;;;;;5.87;1.77;;;17.40;76.30;;;;;;5103901;28;20530;-63
2021/03/19 10:15:36;;;;;;;5.40;1.87;;;17.80;71.80;;;;;;5106442;28;20464;-62
2021/03/19 10:18:06;;;;;;;6.50;1.63;;;17.90;72.50;;;;;;5106780;28;21024;-66
2021/03/19 10:20:35;;;;;;;4.03;1.47;;;16.80;69.40;;;;;;5105073;27;20448;-64
2021/03/19 10:23:14;;;;;;;4.30;1.73;;;17.70;71.30;;;;;;5104049;27;20476;-67
2021/03/19 10:25:42;;;;;;;5.00;2.00;;;17.70;72.50;;;;;;5108166;28;20442;-67
2021/03/19 10:28:22;;;;;;;5.77;1.90;;;15.60;69.50;;;;;;5107408;28;20489;-64
2021/03/19 10:30:52;;;;;;;5.13;1.23;;;15.50;73.00;;;;;;5105453;28;20445;-48
2021/03/19 10:33:22;;;;;;;5.87;1.73;;;16.90;92.90;;;;;;5106545;28;20875;-56
2021/03/19 10:35:55;;;;;;;5.03;1.50;;;18.30;81.80;;;;;;5106426;28;20434;-52
2021/03/19 10:38:32;;;;;;;8.13;1.57;;;18.50;81.00;;;;;;5100897;28;20533;-48
2021/03/19 10:41:02;;;;;;;4.00;1.60;;;18.70;77.40;;;;;;5102980;28;20529;-65
2021/03/19 10:43:34;;;;;;;3.70;1.30;;;17.20;69.60;;;;;;5109512;28;20518;-62
2021/03/19 10:46:09;;;;;;;4.23;1.53;;;16.60;69.00;;;;;;5109282;28;20510;-62
2021/03/19 10:48:44;;;;;;;4.67;1.40;;;16.80;67.40;;;;;;5125700;28;20485;-64
2021/03/19 10:51:19;;;;;;;4.30;1.73;;;15.20;65.60;;;;;;5105419;28;20445;-64
2021/03/19 10:53:56;;;;;;;4.93;1.53;;;13.60;73.20;;;;;;5106385;28;20449;-65
2021/03/19 10:56:24;;;;;;;7.27;1.63;;;13.10;70.80;;;;;;5103404;28;20453;-67
2021/03/19 10:58:54;;;;;;;4.80;1.57;;;15.50;72.40;;;;;;5108467;28;20543;-66
2021/03/19 11:01:31;;;;;;;4.20;1.60;;;15.50;69.20;;;;;;5105697;28;20449;-64
2021/03/19 11:03:58;;;;;;;6.60;1.93;;;14.60;68.30;;;;;;5097984;28;20536;-65
2021/03/19 11:06:35;;;;;;;6.17;1.60;;;12.30;71.90;;;;;;5106626;28;21080;-61
2021/03/19 11:09:11;;;;;;;6.97;1.53;;;14.00;77.40;;;;;;5100368;28;21005;-64
2021/03/19 11:11:39;;;;;;;5.20;1.47;;;17.10;80.20;;;;;;5109012;28;20460;-61
2021/03/19 11:14:09;;;;;;;4.67;1.40;;;14.90;68.10;;;;;;5109286;28;20441;-65
2021/03/19 11:16:37;;;;;;;4.57;1.70;;;16.80;73.90;;;;;;5108758;28;20456;-66
2021/03/19 11:19:07;;;;;;;4.93;1.47;;;16.50;68.60;;;;;;5109929;28;20476;-66
2021/03/19 11:21:37;;;;;;;4.60;1.33;;;16.50;68.60;;;;;;5099665;28;20449;-67
2021/03/19 11:24:18;;;;;;;5.77;1.50;;;14.80;65.50;;;;;;5106472;28;20536;-67
2021/03/19 11:26:59;;;;;;;9.20;1.70;;;14.10;66.90;;;;;;5121592;28;20832;-67
2021/03/19 11:29:30;;;;;;;4.33;1.57;;;14.30;70.00;;;;;;5091474;28;20456;-63
2021/03/19 11:32:30;;;;;;;5.10;1.37;;;17.20;68.70;;;;;;5103176;28;20865;-66
2021/03/19 11:35:11;;;;;;;3.93;1.50;;;19.30;70.00;;;;;;5099900;28;20860;-63
2021/03/19 11:37:40;;;;;;;7.73;1.60;;;20.20;61.90;;;;;;5106789;28;20433;-66
2021/03/19 11:40:13;;;;;;;4.07;1.13;;;17.90;62.10;;;;;;5110740;28;20507;-69
2021/03/19 11:42:44;;;;;;;4.20;1.20;;;16.30;61.00;;;;;;5106877;28;20535;-68
2021/03/19 11:45:13;;;;;;;3.80;1.30;;;16.40;64.80;;;;;;5111915;27;20509;-64
2021/03/19 11:47:41;;;;;;;3.93;1.20;;;18.60;63.50;;;;;;5110797;27;20499;-66
2021/03/19 11:50:27;;;;;;;3.80;1.13;;;20.20;64.40;;;;;;5110429;27;20542;-64
2021/03/19 11:53:01;;;;;;;3.63;1.00;;;22.20;59.70;;;;;;5110758;27;20519;-63
2021/03/19 11:55:31;;;;;;;4.03;1.10;;;22.20;55.90;;;;;;5109486;27;20457;-63
2021/03/19 11:57:59;;;;;;;3.40;0.97;;;21.10;52.70;;;;;;5110933;28;20894;-66
2021/03/19 12:00:28;;;;;;;4.27;1.50;;;20.90;54.50;;;;;;5113562;27;20453;-66
2021/03/19 12:02:56;;;;;;;3.83;1.30;;;19.90;52.50;;;;;;5112451;28;20551;-72
2021/03/19 12:05:23;;;;;;;3.30;1.00;;;19.70;52.90;;;;;;5112586;28;20442;-68
2021/03/19 12:07:50;;;;;;;3.93;1.20;;;18.40;52.30;;;;;;5112083;28;20493;-67
2021/03/19 12:10:19;;;;;;;3.40;0.93;;;16.80;54.70;;;;;;5105531;28;20587;-69
2021/03/19 12:12:46;;;;;;;4.17;1.27;;;17.60;55.40;;;;;;5113223;28;20445;-67
2021/03/19 12:15:17;;;;;;;3.90;1.10;;;17.10;54.70;;;;;;5108037;28;20448;-69
2021/03/19 12:17:43;;;;;;;5.43;1.50;;;16.70;53.50;;;;;;5106081;28;20449;-72
2021/03/19 12:20:11;;;;;;;5.50;1.40;;;15.90;54.00;;;;;;5109232;28;20453;-67
2021/03/19 12:22:40;;;;;;;5.03;1.17;;;16.20;56.10;;;;;;5112252;28;20441;-63
2021/03/19 12:25:07;;;;;;;6.73;0.90;;;16.00;54.70;;;;;;5096445;28;21062;-67
2021/03/19 12:27:34;;;;;;;4.07;1.00;;;14.20;54.20;;;;;;5102580;28;20468;-68
2021/03/19 12:30:00;;;;;;;4.07;0.90;;;13.60;57.60;;;;;;5113882;27;20442;-67
2021/03/19 12:32:27;;;;;;;3.30;1.00;;;16.50;57.60;;;;;;5110414;27;20449;-69
2021/03/19 12:34:54;;;;;;;3.20;0.90;;;15.80;53.10;;;;;;5112071;28;20477;-69
2021/03/19 12:37:20;;;;;;;3.27;0.90;;;15.10;55.20;;;;;;5096740;28;20470;-71
2021/03/19 12:39:47;;;;;;;3.50;0.83;;;15.40;56.80;;;;;;5091839;28;20830;-68
2021/03/19 12:42:13;;;;;;;5.30;2.90;;;17.70;59.10;;;;;;5097313;28;20483;-66
2021/03/19 12:44:39;;;;;;;3.90;0.90;;;17.70;53.40;;;;;;5112553;28;20510;-65
2021/03/19 12:47:06;;;;;;;4.80;1.10;;;15.50;54.60;;;;;;5106758;28;20877;-67
2021/03/19 12:49:33;;;;;;;5.13;1.00;;;14.30;54.80;;;;;;5110629;28;20560;-64
2021/03/19 12:51:59;;;;;;;4.40;1.07;;;14.10;54.70;;;;;;5104860;28;20530;-69
2021/03/19 12:54:26;;;;;;;3.33;1.10;;;13.20;55.20;;;;;;5108880;28;20496;-67
2021/03/19 12:56:52;;;;;;;3.40;1.10;;;12.10;56.20;;;;;;5108797;28;20453;-68
2021/03/19 12:59:18;;;;;;;3.40;1.00;;;14.60;57.80;;;;;;5109321;28;20528;-65
2021/03/19 13:01:45;;;;;;;3.60;1.03;;;17.60;58.50;;;;;;5110920;28;20506;-68
2021/03/19 13:04:11;;;;;;;3.57;1.00;;;19.40;53.20;;;;;;5111319;28;20449;-67
2021/03/19 13:06:39;;;;;;;3.20;0.97;;;17.40;52.20;;;;;;5109758;28;20938;-62
2021/03/19 13:09:10;;;;;;;4.13;1.30;;;14.90;52.50;;;;;;5110937;28;20488;-66
2021/03/19 13:11:37;;;;;;;3.60;1.20;;;14.10;55.10;;;;;;5109750;28;20944;-65
2021/03/19 13:14:03;;;;;;;7.10;1.10;;;17.00;55.10;;;;;;5111699;28;20472;-62
2021/03/19 13:16:30;;;;;;;3.20;1.17;;;19.70;53.90;;;;;;5107977;27;20551;-67